Time;durP1;ratioP1;P1;durP2;ratioP2;P2;SDS_P1;SDS_P2;PMS_P1;PMS_P2;Temp;Humidity;BMP_temperature;BMP_pressure;BME280_temperature;BME280_humidity;BME280_pressure;Samples;Min_cycle;Max_cycle;Signal;HPM_P1;HPM_P2
2022/05/13 00:02:05;;;;;;;;;;;;;;;;;;5070308;28;19908;-79
2022/05/13 00:04:51;;;;;;;;;;;;;;;;;;5059755;28;19927;-79
2022/05/13 00:07:38;;;;;;;;;;;;;;;;;;5064285;28;19924;-79
2022/05/13 00:10:24;;;;;;;;;;;;;;;;;;5061943;28;19912;-79
2022/05/13 00:13:11;;;;;;;;;;;;;;;;;;5068442;28;19923;-78
2022/05/13 00:15:57;;;;;;;;;;;;;;;;;;5061283;28;19937;-78
2022/05/13 00:18:44;;;;;;;;;;;;;;;;;;5063656;28;19908;-79
2022/05/13 00:21:30;;;;;;;;;;;;;;;;;;5074171;28;19914;-79
2022/05/13 00:24:17;;;;;;;;;;;;;;;;;;5068818;28;19916;-79
2022/05/13 00:27:03;;;;;;;;;;;;;;;;;;5066722;28;20384;-79
2022/05/13 00:29:50;;;;;;;;;;;;;;;;;;5069650;28;19999;-79
2022/05/13 00:32:36;;;;;;;;;;;;;;;;;;5063912;28;20554;-79
2022/05/13 00:35:23;;;;;;;;;;;;;;;;;;5084310;28;19912;-79
2022/05/13 00:38:09;;;;;;;;;;;;;;;;;;5069502;28;19916;-79
2022/05/13 00:40:56;;;;;;;;;;;;;;;;;;5070795;28;19916;-78
2022/05/13 00:43:42;;;;;;;;;;;;;;;;;;5081649;28;20453;-78
2022/05/13 00:46:29;;;;;;;;;;;;;;;;;;5068889;28;20374;-78
2022/05/13 00:49:15;;;;;;;;;;;;;;;;;;5046675;28;19913;-79
2022/05/13 00:52:02;;;;;;;;;;;;;;;;;;5057911;28;20404;-79
2022/05/13 00:54:49;;;;;;;;;;;;;;;;;;5068434;28;19917;-79
2022/05/13 00:57:35;;;;;;;;;;;;;;;;;;5067840;28;19931;-79
2022/05/13 01:00:22;;;;;;;;;;;;;;;;;;5083349;28;19920;-79
2022/05/13 01:03:08;;;;;;;;;;;;;;;;;;5068849;28;21236;-79
2022/05/13 01:05:55;;;;;;;;;;;;;;;;;;5066579;28;19916;-79
2022/05/13 01:08:41;;;;;;;;;;;;;;;;;;5069812;28;19917;-79
2022/05/13 01:11:28;;;;;;;;;;;;;;;;;;5062371;28;19913;-79
2022/05/13 01:14:14;;;;;;;;;;;;;;;;;;5068338;28;20383;-79
2022/05/13 01:20:06;;;;;;;;;;;;;;;;;;5068882;28;19916;-78
2022/05/13 01:22:53;;;;;;;;;;;;;;;;;;5058867;28;20399;-78
2022/05/13 01:25:40;;;;;;;;;;;;;;;;;;5067000;28;19928;-77
2022/05/13 01:28:26;;;;;;;;;;;;;;;;;;5067600;28;19932;-78
2022/05/13 01:31:13;;;;;;;;;;;;;;;;;;5080151;28;19912;-78
2022/05/13 01:33:59;;;;;;;;;;;;;;;;;;5076223;28;20367;-78
2022/05/13 01:36:46;;;;;;;;;;;;;;;;;;5068225;28;20317;-78
2022/05/13 01:39:32;;;;;;;;;;;;;;;;;;5050108;28;19908;-79
2022/05/13 01:42:19;;;;;;;;;;;;;;;;;;5065434;28;19913;-78
2022/05/13 01:45:05;;;;;;;;;;;;;;;;;;5059536;28;20288;-78
2022/05/13 01:47:52;;;;;;;;;;;;;;;;;;5067451;28;19927;-79
2022/05/13 01:50:38;;;;;;;;;;;;;;;;;;5068625;28;19917;-78
2022/05/13 01:53:25;;;;;;;;;;;;;;;;;;5056477;28;19908;-78
2022/05/13 01:56:11;;;;;;;;;;;;;;;;;;5068175;28;20372;-78
2022/05/13 01:58:58;;;;;;;;;;;;;;;;;;5070926;28;19913;-78
2022/05/13 02:01:44;;;;;;;;;;;;;;;;;;5062886;28;19909;-79
2022/05/13 02:04:31;;;;;;;;;;;;;;;;;;5065218;28;19908;-80
2022/05/13 02:07:17;;;;;;;;;;;;;;;;;;5060809;28;19923;-80
2022/05/13 02:10:04;;;;;;;;;;;;;;;;;;5066888;28;19912;-79
2022/05/13 02:12:50;;;;;;;;;;;;;;;;;;5070822;28;19909;-80
2022/05/13 02:15:37;;;;;;;;;;;;;;;;;;5071931;28;19924;-80
2022/05/13 02:18:24;;;;;;;;;;;;;;;;;;5069577;28;19924;-80
2022/05/13 02:21:10;;;;;;;;;;;;;;;;;;5067784;28;19935;-80
2022/05/13 02:23:57;;;;;;;;;;;;;;;;;;5057274;28;19908;-80
2022/05/13 02:26:43;;;;;;;;;;;;;;;;;;5068484;28;19939;-80
2022/05/13 02:29:29;;;;;;;;;;;;;;;;;;5069412;28;20277;-80
2022/05/13 02:32:16;;;;;;;;;;;;;;;;;;5060447;28;19917;-80
2022/05/13 02:35:02;;;;;;;;;;;;;;;;;;5062053;28;20014;-80
2022/05/13 02:37:49;;;;;;;;;;;;;;;;;;5069716;28;19913;-80
2022/05/13 02:43:41;;;;;;;;;;;;;;;;;;5072032;28;19919;-80
2022/05/13 02:46:27;;;;;;;;;;;;;;;;;;5072499;28;20426;-80
2022/05/13 02:49:14;;;;;;;;;;;;;;;;;;5069792;28;19922;-80
2022/05/13 02:52:00;;;;;;;;;;;;;;;;;;5067028;28;19991;-80
2022/05/13 02:54:47;;;;;;;;;;;;;;;;;;5069063;28;19908;-80
2022/05/13 02:57:33;;;;;;;;;;;;;;;;;;5088589;28;19919;-80
2022/05/13 03:00:19;;;;;;;;;;;;;;;;;;5068867;28;19917;-79
2022/05/13 03:03:06;;;;;;;;;;;;;;;;;;5070086;28;19920;-79
2022/05/13 03:05:52;;;;;;;;;;;;;;;;;;5070719;28;20459;-79
2022/05/13 03:08:39;;;;;;;;;;;;;;;;;;5069077;28;19916;-79
2022/05/13 03:11:25;;;;;;;;;;;;;;;;;;5067415;28;20845;-79
2022/05/13 03:14:12;;;;;;;;;;;;;;;;;;5097604;28;19919;-80
2022/05/13 03:16:58;;;;;;;;;;;;;;;;;;5090138;28;19923;-79
2022/05/13 03:19:45;;;;;;;;;;;;;;;;;;5081333;28;19908;-79
2022/05/13 03:22:32;;;;;;;;;;;;;;;;;;5102978;27;19908;-78
2022/05/13 03:25:19;;;;;;;;;;;;;;;;;;5088455;28;19923;-78
2022/05/13 03:28:05;;;;;;;;;;;;;;;;;;5101229;27;19916;-79
2022/05/13 03:30:52;;;;;;;;;;;;;;;;;;5085823;28;19916;-78
2022/05/13 03:33:38;;;;;;;;;;;;;;;;;;5089000;28;19916;-79
2022/05/13 03:36:25;;;;;;;;;;;;;;;;;;5084707;28;19915;-79
2022/05/13 03:39:11;;;;;;;;;;;;;;;;;;5086361;28;20368;-79
2022/05/13 03:41:57;;;;;;;;;;;;;;;;;;5086288;28;19908;-78
2022/05/13 03:44:47;;;;;;;;;;;;;;;;;;5082364;28;19908;-79
2022/05/13 03:47:33;;;;;;;;;;;;;;;;;;5100062;27;19920;-78
2022/05/13 03:50:21;;;;;;;;;;;;;;;;;;5084587;28;19926;-78
2022/05/13 03:53:07;;;;;;;;;;;;;;;;;;5088828;28;19919;-77
2022/05/13 03:55:54;;;;;;;;;;;;;;;;;;5085462;28;20411;-78
2022/05/13 03:58:40;;;;;;;;;;;;;;;;;;5083620;28;20274;-78
2022/05/13 04:01:26;;;;;;;;;;;;;;;;;;5084504;28;19923;-78
2022/05/13 04:04:14;;;;;;;;;;;;;;;;;;5093851;28;20376;-78
2022/05/13 04:10:06;;;;;;;;;;;;;;;;;;5094472;28;19908;-78
2022/05/13 04:16:04;;;;;;;;;;;;;;;;;;5086185;28;19918;-79
2022/05/13 04:18:51;;;;;;;;;;;;;;;;;;5083813;28;19923;-78
2022/05/13 04:21:38;;;;;;;;;;;;;;;;;;5089761;28;19915;-79
2022/05/13 04:24:25;;;;;;;;;;;;;;;;;;5081726;28;19918;-80
2022/05/13 04:27:12;;;;;;;;;;;;;;;;;;5088381;28;19928;-80
2022/05/13 04:29:58;;;;;;;;;;;;;;;;;;5090260;28;19920;-80
2022/05/13 04:32:45;;;;;;;;;;;;;;;;;;5079617;28;19931;-79
2022/05/13 04:35:31;;;;;;;;;;;;;;;;;;5065014;28;19908;-79
2022/05/13 04:38:18;;;;;;;;;;;;;;;;;;5088324;28;20294;-79
2022/05/13 04:44:10;;;;;;;;;;;;;;;;;;5082738;28;19915;-80
2022/05/13 04:46:56;;;;;;;;;;;;;;;;;;5087185;28;19923;-80
2022/05/13 04:49:43;;;;;;;;;;;;;;;;;;5090018;28;19912;-81
2022/05/13 04:52:29;;;;;;;;;;;;;;;;;;5093095;28;20360;-79
2022/05/13 04:55:15;;;;;;;;;;;;;;;;;;5086750;28;19912;-79
2022/05/13 04:58:02;;;;;;;;;;;;;;;;;;5075286;28;19915;-78
2022/05/13 05:00:48;;;;;;;;;;;;;;;;;;5073682;28;19931;-78
2022/05/13 05:03:40;;;;;;;;;;;;;;;;;;5086662;28;20585;-78
2022/05/13 05:06:27;;;;;;;;;;;;;;;;;;5088322;28;19923;-79
2022/05/13 05:09:13;;;;;;;;;;;;;;;;;;5082051;28;19928;-76
2022/05/13 05:12:00;;;;;;;;;;;;;;;;;;5086199;28;19912;-75
2022/05/13 05:14:46;;;;;;;;;;;;;;;;;;5082478;28;20450;-77
2022/05/13 05:17:33;;;;;;;;;;;;;;;;;;5079642;28;19934;-76
2022/05/13 05:20:20;;;;;;;;;;;;;;;;;;5087685;28;19923;-77
2022/05/13 05:23:07;;;;;;;;;;;;;;;;;;5085086;28;19918;-77
2022/05/13 05:25:53;;;;;;;;;;;;;;;;;;5097658;28;19924;-80
2022/05/13 05:28:40;;;;;;;;;;;;;;;;;;5093852;28;19916;-78
2022/05/13 05:31:26;;;;;;;;;;;;;;;;;;5079667;28;20307;-78
2022/05/13 05:34:13;;;;;;;;;;;;;;;;;;5080744;28;19927;-78
2022/05/13 05:36:59;;;;;;;;;;;;;;;;;;5086420;28;19912;-78
2022/05/13 05:39:46;;;;;;;;;;;;;;;;;;5082712;28;20234;-78
2022/05/13 05:42:32;;;;;;;;;;;;;;;;;;5080385;28;19912;-78
2022/05/13 05:45:19;;;;;;;;;;;;;;;;;;5086869;28;20380;-78
2022/05/13 05:48:05;;;;;;;;;;;;;;;;;;5086840;28;19931;-78
2022/05/13 05:50:52;;;;;;;;;;;;;;;;;;5087755;28;20280;-78
2022/05/13 05:59:49;;;;;;;;;;;;;;;;;;5084548;28;19914;-79
2022/05/13 06:02:36;;;;;;;;;;;;;;;;;;5086682;28;19918;-78
2022/05/13 06:05:23;;;;;;;;;;;;;;;;;;5110079;28;19915;-78
2022/05/13 06:08:10;;;;;;;;;;;;;;;;;;5087929;28;19916;-79
2022/05/13 06:10:57;;;;;;;;;;;;;;;;;;5090440;28;19917;-78
2022/05/13 06:13:43;;;;;;;;;;;;;;;;;;5079965;28;19926;-78
2022/05/13 06:16:30;;;;;;;;;;;;;;;;;;5091026;28;19915;-78
2022/05/13 06:19:16;;;;;;;;;;;;;;;;;;5091048;28;19916;-79
2022/05/13 06:22:03;;;;;;;;;;;;;;;;;;5091478;28;19912;-78
2022/05/13 06:24:49;;;;;;;;;;;;;;;;;;5092141;28;19908;-78
2022/05/13 06:27:36;;;;;;;;;;;;;;;;;;5083218;28;19942;-78
2022/05/13 06:30:22;;;;;;;;;;;;;;;;;;5092330;28;19919;-78
2022/05/13 06:33:09;;;;;;;;;;;;;;;;;;5090256;28;19912;-78
2022/05/13 06:35:55;;;;;;;;;;;;;;;;;;5080656;28;19912;-78
2022/05/13 06:38:42;;;;;;;;;;;;;;;;;;5090050;28;20383;-78
2022/05/13 06:41:29;;;;;;;;;;;;;;;;;;5090265;28;20005;-78
2022/05/13 06:44:18;;;;;;;;;;;;;;;;;;5087739;28;19919;-77
2022/05/13 06:47:04;;;;;;;;;;;;;;;;;;5091249;28;19908;-78
2022/05/13 06:49:51;;;;;;;;;;;;;;;;;;5079659;28;20323;-77
2022/05/13 06:52:38;;;;;;;;;;;;;;;;;;5089565;28;19916;-78
2022/05/13 06:55:24;;;;;;;;;;;;;;;;;;5101971;28;19918;-77
2022/05/13 06:58:11;;;;;;;;;;;;;;;;;;5092005;28;19915;-78
2022/05/13 07:00:57;;;;;;;;;;;;;;;;;;5091548;28;19912;-78
2022/05/13 07:03:44;;;;;;;;;;;;;;;;;;5090731;28;19908;-78
2022/05/13 07:06:31;;;;;;;;;;;;;;;;;;5090840;28;19908;-78
2022/05/13 07:09:17;;;;;;;;;;;;;;;;;;5091482;28;19920;-76
2022/05/13 07:12:04;;;;;;;;;;;;;;;;;;5095481;28;19997;-78
2022/05/13 07:14:50;;;;;;;;;;;;;;;;;;5089319;28;19909;-78
2022/05/13 07:17:37;;;;;;;;;;;;;;;;;;5090426;28;19916;-78
2022/05/13 07:20:25;;;;;;;;;;;;;;;;;;5089842;28;19922;-78
2022/05/13 07:23:12;;;;;;;;;;;;;;;;;;5087377;28;19919;-78
2022/05/13 07:25:58;;;;;;;;;;;;;;;;;;5089306;28;19931;-78
2022/05/13 07:28:45;;;;;;;;;;;;;;;;;;5062124;28;19920;-78
2022/05/13 07:31:31;;;;;;;;;;;;;;;;;;5091594;28;19912;-78
2022/05/13 07:34:18;;;;;;;;;;;;;;;;;;5080025;28;19912;-78
2022/05/13 07:37:04;;;;;;;;;;;;;;;;;;5091198;28;20146;-78
2022/05/13 07:42:57;;;;;;;;;;;;;;;;;;5080704;28;19912;-77
2022/05/13 07:45:43;;;;;;;;;;;;;;;;;;5092130;28;19922;-79
2022/05/13 07:48:29;;;;;;;;;;;;;;;;;;5090485;28;19931;-78
2022/05/13 07:51:16;;;;;;;;;;;;;;;;;;5085145;28;19939;-78
2022/05/13 07:54:02;;;;;;;;;;;;;;;;;;5104869;28;19915;-78
2022/05/13 07:56:49;;;;;;;;;;;;;;;;;;5089670;28;19908;-78
2022/05/13 08:00:24;;;;;;;;;;;;;;;;;;5077620;28;19908;-78
2022/05/13 08:02:42;;;;;;;;;;;;;;;;;;5089812;28;20364;-78
2022/05/13 08:05:28;;;;;;;;;;;;;;;;;;5090017;28;20390;-78
2022/05/13 08:08:15;;;;;;;;;;;;;;;;;;5090339;28;19916;-79
2022/05/13 08:11:01;;;;;;;;;;;;;;;;;;5068533;28;19908;-80
2022/05/13 08:13:48;;;;;;;;;;;;;;;;;;5079381;28;19923;-79
2022/05/13 08:16:35;;;;;;;;;;;;;;;;;;5088704;28;20303;-79
2022/05/13 08:19:21;;;;;;;;;;;;;;;;;;5089483;28;19908;-79
2022/05/13 08:22:08;;;;;;;;;;;;;;;;;;5087904;28;19920;-80
2022/05/13 08:24:54;;;;;;;;;;;;;;;;;;5088665;28;19912;-79
2022/05/13 08:27:41;;;;;;;;;;;;;;;;;;5103090;28;19927;-79
2022/05/13 08:30:27;;;;;;;;;;;;;;;;;;5091354;28;19912;-79
2022/05/13 08:33:14;;;;;;;;;;;;;;;;;;5096146;28;19912;-79
2022/05/13 08:36:00;;;;;;;;;;;;;;;;;;5078690;28;19919;-80
2022/05/13 08:38:48;;;;;;;;;;;;;;;;;;5083277;28;20371;-78
2022/05/13 08:41:35;;;;;;;;;;;;;;;;;;5086080;28;19923;-78
2022/05/13 08:44:21;;;;;;;;;;;;;;;;;;5084979;28;19916;-78
2022/05/13 08:47:08;;;;;;;;;;;;;;;;;;5089607;28;19916;-78
2022/05/13 08:53:08;;;;;;;;;;;;;;;;;;5084222;28;20516;-79
2022/05/13 08:55:54;;;;;;;;;;;;;;;;;;5088159;28;20224;-78
2022/05/13 08:58:44;;;;;;;;;;;;;;;;;;5082088;28;19915;-80
2022/05/13 09:01:30;;;;;;;;;;;;;;;;;;5087041;28;19912;-79
2022/05/13 09:04:17;;;;;;;;;;;;;;;;;;5086058;28;20323;-79
2022/05/13 09:07:04;;;;;;;;;;;;;;;;;;5088696;28;19912;-79
2022/05/13 09:09:51;;;;;;;;;;;;;;;;;;5088149;28;19920;-79
2022/05/13 09:12:38;;;;;;;;;;;;;;;;;;5087930;28;19927;-79
2022/05/13 09:15:24;;;;;;;;;;;;;;;;;;5078014;28;20151;-79
2022/05/13 09:18:13;;;;;;;;;;;;;;;;;;5073551;28;20541;-79
2022/05/13 09:21:01;;;;;;;;;;;;;;;;;;5079344;28;20042;-79
2022/05/13 09:23:48;;;;;;;;;;;;;;;;;;5087885;28;19916;-79
2022/05/13 09:26:34;;;;;;;;;;;;;;;;;;5086351;28;20309;-79
2022/05/13 09:29:21;;;;;;;;;;;;;;;;;;5080411;28;20399;-79
2022/05/13 09:32:07;;;;;;;;;;;;;;;;;;5089654;28;19978;-79
2022/05/13 09:34:54;;;;;;;;;;;;;;;;;;5089162;28;19908;-79
2022/05/13 09:37:40;;;;;;;;;;;;;;;;;;5088113;28;20323;-78
2022/05/13 09:40:27;;;;;;;;;;;;;;;;;;5088725;28;19908;-78
2022/05/13 09:43:13;;;;;;;;;;;;;;;;;;5081920;28;19916;-78
2022/05/13 09:46:00;;;;;;;;;;;;;;;;;;5091372;28;19908;-78
2022/05/13 09:48:46;;;;;;;;;;;;;;;;;;5092481;28;19922;-79
2022/05/13 09:51:33;;;;;;;;;;;;;;;;;;5082213;28;20004;-79
2022/05/13 09:54:19;;;;;;;;;;;;;;;;;;5091301;28;19915;-78
2022/05/13 09:57:06;;;;;;;;;;;;;;;;;;5080252;28;19914;-78
2022/05/13 09:59:52;;;;;;;;;;;;;;;;;;5075524;28;19931;-79
2022/05/13 10:02:39;;;;;;;;;;;;;;;;;;5088507;28;19917;-78
2022/05/13 10:05:25;;;;;;;;;;;;;;;;;;5081973;28;19915;-78
2022/05/13 10:08:12;;;;;;;;;;;;;;;;;;5083594;28;19938;-80
2022/05/13 10:14:04;;;;;;;;;;;;;;;;;;5073296;28;19919;-79
2022/05/13 10:16:50;;;;;;;;;;;;;;;;;;5091492;28;19908;-80
2022/05/13 10:19:37;;;;;;;;;;;;;;;;;;5093689;28;19919;-79
2022/05/13 10:22:23;;;;;;;;;;;;;;;;;;5094891;28;19912;-79
2022/05/13 10:25:10;;;;;;;;;;;;;;;;;;5091907;28;19912;-79
2022/05/13 10:27:57;;;;;;;;;;;;;;;;;;5092521;28;20481;-79
2022/05/13 10:30:44;;;;;;;;;;;;;;;;;;5078441;28;19919;-80
2022/05/13 10:33:30;;;;;;;;;;;;;;;;;;5103893;28;19916;-80
2022/05/13 10:36:17;;;;;;;;;;;;;;;;;;5102266;28;19911;-79
2022/05/13 10:39:03;;;;;;;;;;;;;;;;;;5092151;28;19912;-79
2022/05/13 10:41:50;;;;;;;;;;;;;;;;;;5092751;28;19908;-79
2022/05/13 10:44:37;;;;;;;;;;;;;;;;;;5080158;28;20268;-79
2022/05/13 10:47:23;;;;;;;;;;;;;;;;;;5104424;28;19911;-79
2022/05/13 10:50:10;;;;;;;;;;;;;;;;;;5091232;28;19912;-79
2022/05/13 10:52:56;;;;;;;;;;;;;;;;;;5090734;28;19922;-79
2022/05/13 10:55:43;;;;;;;;;;;;;;;;;;5103579;28;19915;-79
2022/05/13 10:58:29;;;;;;;;;;;;;;;;;;5074580;28;19927;-79
2022/05/13 11:01:16;;;;;;;;;;;;;;;;;;5090058;28;19908;-79
2022/05/13 11:04:02;;;;;;;;;;;;;;;;;;5091660;28;19908;-79
2022/05/13 11:06:49;;;;;;;;;;;;;;;;;;5101034;28;19916;-79
2022/05/13 11:09:35;;;;;;;;;;;;;;;;;;5089833;28;19917;-79
2022/05/13 11:12:22;;;;;;;;;;;;;;;;;;5091076;28;19908;-79
2022/05/13 11:15:08;;;;;;;;;;;;;;;;;;5090186;28;19916;-79
2022/05/13 11:17:55;;;;;;;;;;;;;;;;;;5091380;28;20392;-79
2022/05/13 11:20:41;;;;;;;;;;;;;;;;;;5090796;28;19914;-79
2022/05/13 11:23:28;;;;;;;;;;;;;;;;;;5090568;28;19912;-80
2022/05/13 11:26:14;;;;;;;;;;;;;;;;;;5102596;28;19970;-78
2022/05/13 11:29:01;;;;;;;;;;;;;;;;;;5078758;28;20516;-79
2022/05/13 11:31:47;;;;;;;;;;;;;;;;;;5090888;28;20360;-78
2022/05/13 11:34:34;;;;;;;;;;;;;;;;;;5090732;28;20364;-78
2022/05/13 11:37:21;;;;;;;;;;;;;;;;;;5094039;28;19916;-77
2022/05/13 11:40:07;;;;;;;;;;;;;;;;;;5096064;28;19908;-80
2022/05/13 11:45:59;;;;;;;;;;;;;;;;;;5092729;28;19908;-78
2022/05/13 11:48:46;;;;;;;;;;;;;;;;;;5094039;28;20307;-78
2022/05/13 11:51:34;;;;;;;;;;;;;;;;;;5085591;28;19912;-78
2022/05/13 11:54:20;;;;;;;;;;;;;;;;;;5089019;28;20287;-78
2022/05/13 11:57:07;;;;;;;;;;;;;;;;;;5090742;28;19912;-78
2022/05/13 11:59:53;;;;;;;;;;;;;;;;;;5084767;28;19912;-78
2022/05/13 12:02:40;;;;;;;;;;;;;;;;;;5089866;28;19916;-78
2022/05/13 12:05:26;;;;;;;;;;;;;;;;;;5087994;28;19912;-78
2022/05/13 12:08:14;;;;;;;;;;;;;;;;;;5089234;28;19929;-79
2022/05/13 12:11:00;;;;;;;;;;;;;;;;;;5099476;28;19912;-79
2022/05/13 12:13:47;;;;;;;;;;;;;;;;;;5078335;28;19914;-79
2022/05/13 12:16:33;;;;;;;;;;;;;;;;;;5090557;28;19919;-78
2022/05/13 12:19:20;;;;;;;;;;;;;;;;;;5089876;28;19982;-78
2022/05/13 12:22:06;;;;;;;;;;;;;;;;;;5085998;28;19912;-81
2022/05/13 12:24:53;;;;;;;;;;;;;;;;;;5086035;28;20685;-78
2022/05/13 12:27:39;;;;;;;;;;;;;;;;;;5105221;27;19928;-78
2022/05/13 12:30:28;;;;;;;;;;;;;;;;;;5088680;28;19909;-78
2022/05/13 12:33:14;;;;;;;;;;;;;;;;;;5075382;28;19908;-78
2022/05/13 12:39:06;;;;;;;;;;;;;;;;;;5081486;28;19914;-78
2022/05/13 12:41:53;;;;;;;;;;;;;;;;;;5084646;28;19908;-77
2022/05/13 12:44:40;;;;;;;;;;;;;;;;;;5087349;28;19914;-78
2022/05/13 12:47:26;;;;;;;;;;;;;;;;;;5087895;28;19908;-78
2022/05/13 12:50:13;;;;;;;;;;;;;;;;;;5088578;28;19930;-78
2022/05/13 12:52:59;;;;;;;;;;;;;;;;;;5095989;28;19938;-79
2022/05/13 12:55:46;;;;;;;;;;;;;;;;;;5082573;28;19930;-78
2022/05/13 12:58:32;;;;;;;;;;;;;;;;;;5087107;28;19908;-79
2022/05/13 13:01:19;;;;;;;;;;;;;;;;;;5087597;28;19916;-79
2022/05/13 13:04:05;;;;;;;;;;;;;;;;;;5086630;28;20352;-79
2022/05/13 13:06:52;;;;;;;;;;;;;;;;;;5088717;28;19908;-78
2022/05/13 13:09:38;;;;;;;;;;;;;;;;;;5079984;28;20902;-77
2022/05/13 13:12:25;;;;;;;;;;;;;;;;;;5079761;28;19923;-76
2022/05/13 13:15:11;;;;;;;;;;;;;;;;;;5085298;28;19932;-77
2022/05/13 13:17:58;;;;;;;;;;;;;;;;;;5079394;28;20280;-76
2022/05/13 13:20:44;;;;;;;;;;;;;;;;;;5082429;28;19908;-77
2022/05/13 13:23:31;;;;;;;;;;;;;;;;;;5086182;28;19916;-76
2022/05/13 13:26:17;;;;;;;;;;;;;;;;;;5080404;28;19928;-77
2022/05/13 13:29:05;;;;;;;;;;;;;;;;;;5081947;28;20296;-77
2022/05/13 13:31:52;;;;;;;;;;;;;;;;;;5082976;28;19909;-77
2022/05/13 13:34:38;;;;;;;;;;;;;;;;;;5077808;28;19923;-76
2022/05/13 13:37:25;;;;;;;;;;;;;;;;;;5077997;28;19908;-77
2022/05/13 13:40:11;;;;;;;;;;;;;;;;;;5077639;28;19920;-77
2022/05/13 13:42:58;;;;;;;;;;;;;;;;;;5079456;28;19923;-77
2022/05/13 13:45:44;;;;;;;;;;;;;;;;;;5085906;28;19915;-77
2022/05/13 13:48:31;;;;;;;;;;;;;;;;;;5088015;28;19916;-77
2022/05/13 13:51:17;;;;;;;;;;;;;;;;;;5081529;28;19908;-77
2022/05/13 13:54:04;;;;;;;;;;;;;;;;;;5079154;28;19918;-77
2022/05/13 13:56:50;;;;;;;;;;;;;;;;;;5077256;28;20398;-77
2022/05/13 13:59:37;;;;;;;;;;;;;;;;;;5079439;28;19916;-76
2022/05/13 14:02:24;;;;;;;;;;;;;;;;;;5072656;28;20376;-76
2022/05/13 14:05:10;;;;;;;;;;;;;;;;;;5078158;28;19923;-76
2022/05/13 14:07:56;;;;;;;;;;;;;;;;;;5077126;28;20343;-76
2022/05/13 14:10:43;;;;;;;;;;;;;;;;;;5076510;28;19912;-76
2022/05/13 14:13:29;;;;;;;;;;;;;;;;;;5074811;28;19954;-75
2022/05/13 14:16:16;;;;;;;;;;;;;;;;;;5074731;28;19932;-76
2022/05/13 14:19:02;;;;;;;;;;;;;;;;;;5083189;28;19919;-76
2022/05/13 14:21:49;;;;;;;;;;;;;;;;;;5070689;28;19916;-76
2022/05/13 14:24:35;;;;;;;;;;;;;;;;;;5081942;28;19908;-75
2022/05/13 14:27:24;;;;;;;;;;;;;;;;;;5084907;28;19919;-77
2022/05/13 14:30:11;;;;;;;;;;;;;;;;;;5090612;28;19916;-75
2022/05/13 14:32:57;;;;;;;;;;;;;;;;;;5092030;28;19915;-76
2022/05/13 14:35:44;;;;;;;;;;;;;;;;;;5083843;28;19919;-74
2022/05/13 14:39:48;;;;;;;;;;;;;;;;;;5090068;28;19912;-76
2022/05/13 14:41:36;;;;;;;;;;;;;;;;;;5081915;28;19916;-76
2022/05/13 14:44:24;;;;;;;;;;;;;;;;;;5082911;28;20307;-76
2022/05/13 14:47:10;;;;;;;;;;;;;;;;;;5087024;28;19916;-76
2022/05/13 14:49:57;;;;;;;;;;;;;;;;;;5086523;28;20670;-76
2022/05/13 14:52:43;;;;;;;;;;;;;;;;;;5086440;28;19930;-76
2022/05/13 14:55:30;;;;;;;;;;;;;;;;;;5079021;28;19919;-76
2022/05/13 14:58:16;;;;;;;;;;;;;;;;;;5085718;28;20371;-76
2022/05/13 15:01:03;;;;;;;;;;;;;;;;;;5087754;28;19912;-76
2022/05/13 15:03:49;;;;;;;;;;;;;;;;;;5084015;28;19912;-76
2022/05/13 15:06:37;;;;;;;;;;;;;;;;;;5082188;28;20376;-76
2022/05/13 15:09:25;;;;;;;;;;;;;;;;;;5085532;28;19920;-75
2022/05/13 15:12:11;;;;;;;;;;;;;;;;;;5084572;28;19913;-76
2022/05/13 15:14:58;;;;;;;;;;;;;;;;;;5081641;28;19911;-76
2022/05/13 15:17:49;;;;;;;;;;;;;;;;;;5078962;28;19908;-76
2022/05/13 15:20:35;;;;;;;;;;;;;;;;;;5091549;28;20294;-76
2022/05/13 15:23:22;;;;;;;;;;;;;;;;;;5075243;28;19908;-75
2022/05/13 15:26:08;;;;;;;;;;;;;;;;;;5089830;28;19924;-76
2022/05/13 15:28:55;;;;;;;;;;;;;;;;;;5087444;28;19916;-77
2022/05/13 15:31:42;;;;;;;;;;;;;;;;;;5087474;28;19912;-77
2022/05/13 15:34:28;;;;;;;;;;;;;;;;;;5081226;28;19916;-77
2022/05/13 15:37:15;;;;;;;;;;;;;;;;;;5083530;28;19920;-77
2022/05/13 15:40:01;;;;;;;;;;;;;;;;;;5082298;28;19912;-77
2022/05/13 15:42:48;;;;;;;;;;;;;;;;;;5086023;28;19912;-77
2022/05/13 15:45:35;;;;;;;;;;;;;;;;;;5078039;28;19912;-77
2022/05/13 15:48:21;;;;;;;;;;;;;;;;;;5081570;28;19920;-77
2022/05/13 15:54:13;;;;;;;;;;;;;;;;;;5083969;28;19919;-75
2022/05/13 15:56:59;;;;;;;;;;;;;;;;;;5085564;28;19943;-78
2022/05/13 15:59:46;;;;;;;;;;;;;;;;;;5084281;28;19927;-77
2022/05/13 16:02:32;;;;;;;;;;;;;;;;;;5088891;28;19912;-79
2022/05/13 16:05:19;;;;;;;;;;;;;;;;;;5085900;28;19912;-76
2022/05/13 16:08:05;;;;;;;;;;;;;;;;;;5087351;28;19922;-76
2022/05/13 16:10:51;;;;;;;;;;;;;;;;;;5089378;28;19908;-77
2022/05/13 16:13:38;;;;;;;;;;;;;;;;;;5078808;28;19912;-77
2022/05/13 16:16:25;;;;;;;;;;;;;;;;;;5086460;28;19908;-77
2022/05/13 16:19:12;;;;;;;;;;;;;;;;;;5087033;28;20299;-77
2022/05/13 16:21:58;;;;;;;;;;;;;;;;;;5082294;28;20281;-77
2022/05/13 16:24:45;;;;;;;;;;;;;;;;;;5089938;28;19919;-76
2022/05/13 16:27:31;;;;;;;;;;;;;;;;;;5086845;28;19920;-77
2022/05/13 16:30:18;;;;;;;;;;;;;;;;;;5088725;28;19927;-77
2022/05/13 16:33:04;;;;;;;;;;;;;;;;;;5086283;28;20400;-76
2022/05/13 16:35:51;;;;;;;;;;;;;;;;;;5087898;28;19908;-76
2022/05/13 16:38:37;;;;;;;;;;;;;;;;;;5089046;28;19928;-76
2022/05/13 16:41:24;;;;;;;;;;;;;;;;;;5086200;28;20398;-77
2022/05/13 16:44:11;;;;;;;;;;;;;;;;;;5100281;28;19916;-77
2022/05/13 16:46:57;;;;;;;;;;;;;;;;;;5085644;28;19930;-77
2022/05/13 16:49:45;;;;;;;;;;;;;;;;;;5087864;28;19923;-77
2022/05/13 16:52:32;;;;;;;;;;;;;;;;;;5062550;28;19927;-77
2022/05/13 16:55:18;;;;;;;;;;;;;;;;;;5082920;28;19916;-77
2022/05/13 16:58:05;;;;;;;;;;;;;;;;;;5103886;28;19908;-77
2022/05/13 17:00:51;;;;;;;;;;;;;;;;;;5077073;28;19908;-76
2022/05/13 17:03:40;;;;;;;;;;;;;;;;;;5087233;28;19911;-76
2022/05/13 17:06:26;;;;;;;;;;;;;;;;;;5081289;28;20364;-76
2022/05/13 17:21:34;;;;;;;;;;;;;;;;;;5080817;28;19918;-76
2022/05/13 17:24:21;;;;;;;;;;;;;;;;;;5077243;28;19920;-75
2022/05/13 17:27:08;;;;;;;;;;;;;;;;;;5082576;28;19926;-77
2022/05/13 17:29:54;;;;;;;;;;;;;;;;;;5080482;28;19924;-77
2022/05/13 17:32:43;;;;;;;;;;;;;;;;;;5078413;28;19912;-77
2022/05/13 17:35:29;;;;;;;;;;;;;;;;;;5084859;28;20382;-75
2022/05/13 17:38:16;;;;;;;;;;;;;;;;;;5083238;28;19912;-77
2022/05/13 17:41:02;;;;;;;;;;;;;;;;;;5079916;28;19923;-76
2022/05/13 17:43:49;;;;;;;;;;;;;;;;;;5082212;28;19913;-76
2022/05/13 17:46:39;;;;;;;;;;;;;;;;;;5078138;28;19931;-76
2022/05/13 17:49:25;;;;;;;;;;;;;;;;;;5087332;28;19920;-76
2022/05/13 17:52:12;;;;;;;;;;;;;;;;;;5081694;28;19908;-75
2022/05/13 17:55:01;;;;;;;;;;;;;;;;;;5083486;28;20363;-77
2022/05/13 17:57:47;;;;;;;;;;;;;;;;;;5080339;28;19916;-77
2022/05/13 18:00:34;;;;;;;;;;;;;;;;;;5083850;28;19919;-76
2022/05/13 18:03:20;;;;;;;;;;;;;;;;;;5087401;28;19920;-75
2022/05/13 18:06:07;;;;;;;;;;;;;;;;;;5082694;28;19908;-76
2022/05/13 18:08:53;;;;;;;;;;;;;;;;;;5091776;28;19931;-76
2022/05/13 18:11:42;;;;;;;;;;;;;;;;;;5087405;28;19919;-76
2022/05/13 18:14:30;;;;;;;;;;;;;;;;;;5090496;28;19920;-76
2022/05/13 18:17:16;;;;;;;;;;;;;;;;;;5086101;28;19908;-77
2022/05/13 18:20:03;;;;;;;;;;;;;;;;;;5088151;28;19908;-76
2022/05/13 18:22:50;;;;;;;;;;;;;;;;;;5080615;28;19919;-76
2022/05/13 18:25:39;;;;;;;;;;;;;;;;;;5084226;28;19924;-76
2022/05/13 18:28:25;;;;;;;;;;;;;;;;;;5090279;28;20410;-76
2022/05/13 18:31:12;;;;;;;;;;;;;;;;;;5090621;28;20390;-77
2022/05/13 18:34:01;;;;;;;;;;;;;;;;;;5080651;28;19912;-76
2022/05/13 18:36:48;;;;;;;;;;;;;;;;;;5087758;28;19916;-76
2022/05/13 18:39:34;;;;;;;;;;;;;;;;;;5092359;28;19908;-76
2022/05/13 18:48:31;;;;;;;;;;;;;;;;;;5087374;28;19942;-76
2022/05/13 18:51:17;;;;;;;;;;;;;;;;;;5086009;28;20375;-77
2022/05/13 18:54:04;;;;;;;;;;;;;;;;;;5083323;28;20603;-77
2022/05/13 18:56:50;;;;;;;;;;;;;;;;;;5085878;28;19912;-76
2022/05/13 18:59:37;;;;;;;;;;;;;;;;;;5101886;27;19912;-76
2022/05/13 19:02:23;;;;;;;;;;;;;;;;;;5089337;28;19935;-76
2022/05/13 19:05:10;;;;;;;;;;;;;;;;;;5081554;28;19908;-75
2022/05/13 19:07:56;;;;;;;;;;;;;;;;;;5080536;28;19909;-75
2022/05/13 19:10:46;;;;;;;;;;;;;;;;;;5092320;28;19920;-76
2022/05/13 19:13:32;;;;;;;;;;;;;;;;;;5083470;28;19908;-76
2022/05/13 19:16:22;;;;;;;;;;;;;;;;;;5083464;28;19919;-76
2022/05/13 19:19:09;;;;;;;;;;;;;;;;;;5086273;28;19919;-76
2022/05/13 19:21:55;;;;;;;;;;;;;;;;;;5085887;28;20379;-77
2022/05/13 19:24:41;;;;;;;;;;;;;;;;;;5079755;28;19912;-76
2022/05/13 19:27:29;;;;;;;;;;;;;;;;;;5079198;28;19924;-76
2022/05/13 19:30:15;;;;;;;;;;;;;;;;;;5076487;28;19928;-78
2022/05/13 19:33:04;;;;;;;;;;;;;;;;;;5079106;28;20355;-76
2022/05/13 19:35:50;;;;;;;;;;;;;;;;;;5084903;28;19912;-77
2022/05/13 19:38:37;;;;;;;;;;;;;;;;;;5089529;28;19908;-76
2022/05/13 19:41:24;;;;;;;;;;;;;;;;;;5090038;28;20389;-76
2022/05/13 19:44:13;;;;;;;;;;;;;;;;;;5077753;28;19916;-78
2022/05/13 19:46:59;;;;;;;;;;;;;;;;;;5098187;28;19909;-75
2022/05/13 19:49:46;;;;;;;;;;;;;;;;;;5090206;28;19920;-75
2022/05/13 19:52:32;;;;;;;;;;;;;;;;;;5086314;28;19916;-77
2022/05/13 19:55:19;;;;;;;;;;;;;;;;;;5079939;28;19927;-77
2022/05/13 19:58:06;;;;;;;;;;;;;;;;;;5102302;28;19919;-77